createdAt,value
2023-03-14T00:00:40.004Z,1.53
2023-03-14T00:03:26.624Z,1.53
2023-03-14T00:06:14.509Z,1.60
2023-03-14T00:09:00.893Z,1.83
2023-03-14T00:11:47.810Z,1.30
2023-03-14T00:14:34.379Z,1.50
2023-03-14T00:17:22.383Z,1.77
2023-03-14T00:20:10.528Z,1.73
2023-03-14T00:22:56.935Z,3.07
2023-03-14T00:25:43.337Z,1.87
2023-03-14T00:28:30.247Z,1.57
2023-03-14T00:31:18.283Z,2.10
2023-03-14T00:34:06.120Z,1.77
2023-03-14T00:36:52.461Z,1.07
2023-03-14T00:39:39.009Z,1.60
2023-03-14T00:42:25.470Z,1.77
2023-03-14T00:45:12.484Z,1.60
2023-03-14T00:47:59.118Z,1.50
2023-03-14T00:50:47.669Z,1.93
2023-03-14T00:53:37.820Z,1.37
2023-03-14T00:56:24.171Z,1.97
2023-03-14T00:59:11.200Z,1.20
2023-03-14T01:01:58.041Z,4.07
2023-03-14T01:04:45.201Z,2.20
2023-03-14T01:07:32.981Z,1.40
2023-03-14T01:10:20.000Z,2.30
2023-03-14T01:13:06.266Z,1.40
2023-03-14T01:15:52.781Z,3.10
2023-03-14T01:18:41.273Z,1.57
2023-03-14T01:21:31.028Z,1.33
2023-03-14T01:24:19.070Z,1.57
2023-03-14T01:27:05.482Z,2.77
2023-03-14T01:29:53.020Z,1.90
2023-03-14T01:32:39.935Z,1.90
2023-03-14T01:35:26.668Z,1.37
2023-03-14T01:38:14.183Z,2.00
2023-03-14T01:41:02.062Z,1.50
2023-03-14T01:43:49.046Z,2.00
2023-03-14T01:46:39.500Z,1.40
2023-03-14T01:49:31.663Z,1.40
2023-03-14T01:52:22.072Z,3.07
2023-03-14T01:55:11.469Z,1.53
2023-03-14T01:58:02.898Z,1.47
2023-03-14T02:00:49.817Z,1.60
2023-03-14T02:03:40.768Z,1.50
2023-03-14T02:06:31.003Z,1.73
2023-03-14T02:09:18.232Z,1.63
2023-03-14T02:12:05.724Z,1.60
2023-03-14T02:14:54.209Z,1.63
2023-03-14T02:17:42.830Z,1.67
2023-03-14T02:20:37.122Z,1.20
2023-03-14T02:23:31.200Z,1.73
2023-03-14T02:26:23.537Z,1.33
2023-03-14T02:29:11.751Z,1.40
2023-03-14T02:31:58.281Z,2.13
2023-03-14T02:34:47.958Z,1.53
2023-03-14T02:37:40.665Z,2.60
2023-03-14T02:40:27.235Z,1.60
2023-03-14T02:43:13.565Z,2.47
2023-03-14T02:46:02.549Z,2.30
2023-03-14T02:48:53.598Z,1.57
2023-03-14T02:51:42.357Z,1.20
2023-03-14T02:54:29.400Z,1.43
2023-03-14T02:57:16.029Z,2.83
2023-03-14T03:00:03.228Z,1.43
2023-03-14T03:02:50.971Z,1.17
2023-03-14T03:05:37.728Z,1.60
2023-03-14T03:08:27.882Z,1.40
2023-03-14T03:11:14.890Z,1.30
2023-03-14T03:14:01.388Z,2.07
2023-03-14T03:16:47.811Z,3.13
2023-03-14T03:19:36.765Z,2.00
2023-03-14T03:22:23.152Z,1.30
2023-03-14T03:25:11.665Z,2.17
2023-03-14T03:27:58.916Z,2.17
2023-03-14T03:30:46.402Z,1.40
2023-03-14T03:33:33.386Z,2.50
2023-03-14T03:36:25.078Z,1.50
2023-03-14T03:39:11.432Z,1.57
2023-03-14T03:41:57.887Z,3.57
2023-03-14T03:44:44.443Z,3.10
2023-03-14T03:47:32.471Z,1.83
2023-03-14T03:50:19.265Z,1.63
2023-03-14T03:53:07.134Z,1.77
2023-03-14T03:55:54.761Z,2.30
2023-03-14T03:58:41.190Z,2.77
2023-03-14T04:01:27.719Z,2.50
2023-03-14T04:04:14.949Z,1.90
2023-03-14T04:07:01.453Z,3.47
2023-03-14T04:09:49.358Z,2.90
2023-03-14T04:12:36.105Z,4.77
2023-03-14T04:15:22.348Z,2.20
2023-03-14T04:18:08.853Z,2.37
2023-03-14T04:20:55.960Z,2.33
2023-03-14T04:23:42.422Z,2.87
2023-03-14T04:26:30.316Z,3.00
2023-03-14T04:29:17.048Z,2.47
2023-03-14T04:32:03.403Z,2.60
2023-03-14T04:34:49.824Z,1.90
2023-03-14T04:37:36.315Z,6.00
2023-03-14T04:40:22.679Z,1.80
2023-03-14T04:43:11.375Z,2.53
2023-03-14T04:45:59.811Z,4.23
2023-03-14T04:48:49.429Z,3.23
2023-03-14T04:51:35.898Z,2.47
2023-03-14T04:54:22.250Z,2.97
2023-03-14T04:57:08.595Z,3.40
2023-03-14T04:59:56.341Z,2.57
2023-03-14T05:02:43.099Z,7.07
2023-03-14T05:05:29.797Z,6.03
2023-03-14T05:08:17.634Z,5.03
2023-03-14T05:11:04.612Z,5.27
2023-03-14T05:13:51.195Z,2.83
2023-03-14T05:16:39.025Z,5.17
2023-03-14T05:19:25.692Z,4.07
2023-03-14T05:22:12.817Z,6.00
2023-03-14T05:25:00.044Z,4.53
2023-03-14T05:27:46.709Z,5.03
2023-03-14T05:30:34.718Z,5.00
2023-03-14T05:33:22.680Z,2.57
2023-03-14T05:36:10.551Z,6.83
2023-03-14T05:38:57.266Z,4.80
2023-03-14T05:41:43.616Z,13.67
2023-03-14T05:44:30.169Z,6.23
2023-03-14T05:47:16.809Z,5.10
2023-03-14T05:50:04.889Z,2.60
2023-03-14T05:52:51.461Z,5.10
2023-03-14T05:55:37.835Z,12.17
2023-03-14T05:58:24.588Z,10.50
2023-03-14T06:01:11.658Z,11.43
2023-03-14T06:03:58.673Z,4.27
2023-03-14T06:06:46.385Z,5.33
2023-03-14T06:09:33.047Z,3.87
2023-03-14T06:12:19.597Z,3.63
2023-03-14T06:15:06.910Z,6.60
2023-03-14T06:17:53.343Z,4.83
2023-03-14T06:20:40.322Z,6.53
2023-03-14T06:23:28.460Z,7.53
2023-03-14T06:26:14.938Z,3.90
2023-03-14T06:29:04.219Z,3.47
2023-03-14T06:31:50.616Z,5.03
2023-03-14T06:34:36.861Z,4.67
2023-03-14T06:37:23.342Z,3.77
2023-03-14T06:40:13.632Z,3.70
2023-03-14T06:43:00.162Z,6.70
2023-03-14T06:45:46.971Z,5.07
2023-03-14T06:48:33.731Z,3.60
2023-03-14T06:51:20.041Z,4.37
2023-03-14T06:54:06.501Z,8.50
2023-03-14T06:56:54.291Z,3.80
2023-03-14T06:59:40.680Z,5.93
2023-03-14T07:02:41.598Z,2.33
2023-03-14T07:05:29.359Z,18.17
2023-03-14T07:08:16.287Z,10.67
2023-03-14T07:11:03.399Z,4.13
2023-03-14T07:13:51.486Z,7.90
2023-03-14T07:16:37.955Z,5.67
2023-03-14T07:19:24.497Z,4.53
2023-03-14T07:22:11.307Z,4.43
2023-03-14T07:25:00.165Z,16.73
2023-03-14T07:27:46.929Z,6.47
2023-03-14T07:30:34.696Z,9.80
2023-03-14T07:33:21.439Z,5.50
2023-03-14T07:36:08.957Z,6.10
2023-03-14T07:38:55.379Z,6.72
2023-03-14T07:41:41.829Z,10.50
2023-03-14T07:44:28.656Z,9.25
2023-03-14T07:47:16.723Z,7.63
2023-03-14T07:50:03.563Z,12.82
2023-03-14T07:52:51.123Z,8.45
2023-03-14T07:55:37.632Z,14.25
2023-03-14T07:58:24.289Z,8.27
2023-03-14T08:01:10.992Z,12.00
2023-03-14T08:03:58.751Z,4.85
2023-03-14T08:06:45.102Z,15.55
2023-03-14T08:09:31.525Z,3.45
2023-03-14T08:12:18.026Z,4.68
2023-03-14T08:15:05.087Z,6.28
2023-03-14T08:17:52.437Z,9.75
2023-03-14T08:20:40.497Z,18.25
2023-03-14T08:23:27.227Z,9.23
2023-03-14T08:26:13.947Z,5.40
2023-03-14T08:29:00.455Z,4.68
2023-03-14T08:31:47.211Z,5.30
2023-03-14T08:34:35.274Z,6.95
2023-03-14T08:37:26.901Z,6.60
2023-03-14T08:40:14.763Z,4.70
2023-03-14T08:43:01.450Z,3.42
2023-03-14T08:45:48.138Z,3.88
2023-03-14T08:48:34.629Z,7.28
2023-03-14T08:51:20.887Z,8.27
2023-03-14T08:54:11.608Z,1.83
2023-03-14T08:56:58.446Z,8.45
2023-03-14T08:59:44.836Z,3.67
2023-03-14T09:02:33.296Z,1.55
2023-03-14T09:05:20.184Z,2.70
2023-03-14T09:08:07.197Z,3.17
2023-03-14T09:10:54.842Z,3.35
2023-03-14T09:13:41.706Z,5.30
2023-03-14T09:16:28.653Z,5.70
2023-03-14T09:19:15.308Z,1.73
2023-03-14T09:22:01.756Z,9.23
2023-03-14T09:24:48.220Z,1.95
2023-03-14T09:27:35.901Z,2.03
2023-03-14T09:30:22.403Z,2.03
2023-03-14T09:33:09.329Z,3.33
2023-03-14T09:35:56.021Z,7.30
2023-03-14T09:38:42.344Z,2.30
2023-03-14T09:41:31.739Z,3.60
2023-03-14T09:44:24.589Z,5.05
2023-03-14T09:47:16.267Z,4.97
2023-03-14T09:50:04.230Z,4.57
2023-03-14T09:52:55.042Z,5.32
2023-03-14T09:55:43.204Z,2.38
2023-03-14T09:58:29.815Z,2.92
2023-03-14T10:01:22.570Z,3.08
2023-03-14T10:04:15.050Z,1.65
2023-03-14T10:07:03.691Z,5.38
2023-03-14T10:09:52.931Z,2.55
2023-03-14T10:12:40.800Z,3.95
2023-03-14T10:15:31.440Z,1.52
2023-03-14T10:18:19.278Z,5.18
2023-03-14T10:21:09.025Z,2.67
2023-03-14T10:23:55.511Z,8.40
2023-03-14T10:26:42.152Z,3.30
2023-03-14T10:29:28.928Z,4.10
2023-03-14T10:32:22.594Z,4.57
2023-03-14T10:35:22.151Z,3.28
2023-03-14T10:38:14.778Z,2.20
2023-03-14T10:41:01.715Z,4.97
2023-03-14T10:43:55.091Z,5.40
2023-03-14T10:46:41.751Z,4.57
2023-03-14T10:49:30.624Z,4.22
2023-03-14T10:52:31.177Z,5.93
2023-03-14T10:55:27.702Z,2.55
2023-03-14T10:58:34.824Z,4.65
2023-03-14T11:01:33.725Z,14.52
2023-03-14T11:04:43.861Z,3.83
2023-03-14T11:07:36.396Z,21.13
2023-03-14T11:10:28.771Z,5.80
2023-03-14T11:13:21.679Z,3.13
2023-03-14T11:16:15.633Z,4.25
2023-03-14T11:19:38.857Z,0.80
2023-03-14T11:22:38.306Z,3.42
2023-03-14T11:25:31.669Z,1.35
2023-03-14T11:28:23.553Z,2.20
2023-03-14T11:31:18.241Z,0.95
2023-03-14T11:34:16.842Z,1.83
2023-03-14T11:37:07.632Z,1.30
2023-03-14T11:40:03.591Z,2.40
2023-03-14T11:42:56.748Z,2.10
2023-03-14T11:45:45.074Z,1.30
2023-03-14T11:48:38.963Z,3.38
2023-03-14T11:51:28.017Z,1.75
2023-03-14T11:54:19.663Z,2.90
2023-03-14T11:57:13.835Z,1.60
2023-03-14T12:00:05.726Z,1.38
2023-03-14T12:02:58.009Z,1.50
2023-03-14T12:05:55.855Z,1.38
2023-03-14T12:08:52.360Z,1.60
2023-03-14T12:11:42.704Z,4.13
2023-03-14T12:14:33.915Z,3.97
2023-03-14T12:17:22.984Z,0.85
2023-03-14T12:20:19.294Z,1.25
2023-03-14T12:23:12.977Z,2.30
2023-03-14T12:26:14.854Z,2.67
2023-03-14T12:29:17.236Z,1.77
2023-03-14T12:32:25.021Z,2.38
2023-03-14T12:35:36.540Z,1.73
2023-03-14T12:38:39.206Z,2.58
2023-03-14T12:41:30.673Z,7.18
2023-03-14T12:44:42.430Z,2.22
2023-03-14T12:47:56.206Z,2.65
2023-03-14T12:50:45.411Z,2.83
2023-03-14T12:54:01.998Z,3.38
2023-03-14T12:57:13.915Z,1.73
2023-03-14T13:00:02.238Z,6.45
2023-03-14T13:02:50.888Z,1.90
2023-03-14T13:05:38.656Z,2.40
2023-03-14T13:08:39.477Z,3.25
2023-03-14T13:11:28.119Z,1.58
2023-03-14T13:14:15.717Z,4.28
2023-03-14T13:17:19.193Z,2.58
2023-03-14T13:20:17.084Z,2.55
2023-03-14T13:23:05.705Z,5.75
2023-03-14T13:25:52.350Z,5.57
2023-03-14T13:28:39.295Z,1.40
2023-03-14T13:31:28.137Z,2.70
2023-03-14T13:34:14.867Z,3.28
2023-03-14T13:37:01.322Z,1.35
2023-03-14T13:39:53.167Z,1.60
2023-03-14T13:42:39.967Z,1.58
2023-03-14T13:45:26.663Z,3.05
2023-03-14T13:48:15.952Z,1.27
2023-03-14T13:51:05.228Z,6.60
2023-03-14T13:53:53.639Z,2.92
2023-03-14T13:56:41.883Z,3.03
2023-03-14T13:59:31.004Z,1.85
2023-03-14T14:02:18.783Z,1.80
2023-03-14T14:05:06.726Z,3.95
2023-03-14T14:07:54.120Z,4.10
2023-03-14T14:10:41.128Z,6.68
2023-03-14T14:13:31.870Z,0.73
2023-03-14T14:16:22.209Z,5.53
2023-03-14T14:19:09.090Z,4.00
2023-03-14T14:21:55.932Z,2.35
2023-03-14T14:24:42.972Z,1.88
2023-03-14T14:27:32.460Z,1.10
2023-03-14T14:30:35.029Z,2.35
2023-03-14T14:33:23.472Z,7.15
2023-03-14T14:36:18.689Z,9.27
2023-03-14T14:39:12.193Z,6.30
2023-03-14T14:41:59.138Z,1.73
2023-03-14T14:44:47.044Z,2.87
2023-03-14T14:47:35.328Z,5.00
2023-03-14T14:50:31.507Z,2.23
2023-03-14T14:53:24.890Z,2.83
2023-03-14T14:56:20.039Z,4.63
2023-03-14T14:59:08.778Z,2.43
2023-03-14T15:01:59.418Z,2.60
2023-03-14T15:04:49.312Z,2.53
2023-03-14T15:07:35.905Z,2.47
2023-03-14T15:10:25.215Z,1.90
2023-03-14T15:13:14.264Z,1.80
2023-03-14T15:16:01.172Z,2.90
2023-03-14T15:18:51.907Z,1.43
2023-03-14T15:21:40.001Z,1.00
2023-03-14T15:24:26.541Z,2.00
2023-03-14T15:27:16.072Z,3.57
2023-03-14T15:30:02.645Z,1.60
2023-03-14T15:32:49.361Z,1.67
2023-03-14T15:35:35.658Z,2.23
2023-03-14T15:38:25.903Z,2.77
2023-03-14T15:41:12.395Z,1.93
2023-03-14T15:43:59.119Z,1.50
2023-03-14T15:46:45.440Z,3.00
2023-03-14T15:49:31.763Z,2.10
2023-03-14T15:52:18.197Z,2.60
2023-03-14T15:55:06.811Z,2.57
2023-03-14T15:57:53.309Z,3.57
2023-03-14T16:00:40.823Z,2.87
2023-03-14T16:03:27.508Z,3.53
2023-03-14T16:06:14.717Z,6.07
2023-03-14T16:09:01.045Z,5.43
2023-03-14T16:11:49.082Z,1.83
2023-03-14T16:14:35.657Z,2.30
2023-03-14T16:17:21.939Z,5.13
2023-03-14T16:20:10.314Z,6.83
2023-03-14T16:22:56.941Z,6.33
2023-03-14T16:25:45.980Z,5.77
2023-03-14T16:28:34.164Z,9.53
2023-03-14T16:31:23.680Z,3.63
2023-03-14T16:34:10.358Z,9.87
2023-03-14T16:36:56.641Z,4.00
2023-03-14T16:40:07.481Z,4.00
2023-03-14T16:43:14.510Z,6.53
2023-03-14T16:46:02.157Z,6.63
2023-03-14T16:48:48.590Z,10.20
2023-03-14T16:51:34.958Z,5.43
2023-03-14T16:54:21.318Z,8.77
2023-03-14T16:57:07.853Z,6.83
2023-03-14T16:59:56.091Z,8.47
2023-03-14T17:02:43.785Z,11.13
2023-03-14T17:05:30.267Z,6.47
2023-03-14T17:08:17.644Z,10.80
2023-03-14T17:11:04.057Z,9.97
2023-03-14T17:13:50.533Z,6.80
2023-03-14T17:16:37.236Z,9.77
2023-03-14T17:19:25.502Z,5.73
2023-03-14T17:22:24.085Z,12.90
2023-03-14T17:25:11.635Z,8.30
2023-03-14T17:27:58.208Z,8.13
2023-03-14T17:30:47.648Z,9.80
2023-03-14T17:33:34.455Z,5.43
2023-03-14T17:36:26.406Z,6.77
2023-03-14T17:39:12.758Z,6.10
2023-03-14T17:41:59.166Z,8.20
2023-03-14T17:44:46.116Z,8.20
2023-03-14T17:47:32.611Z,7.20
2023-03-14T17:50:19.388Z,12.40
2023-03-14T17:53:07.449Z,15.13
2023-03-14T17:55:53.913Z,9.63
2023-03-14T17:58:43.890Z,9.83
2023-03-14T18:01:31.313Z,10.00
2023-03-14T18:04:18.571Z,13.60
2023-03-14T18:07:05.102Z,9.80
2023-03-14T18:09:52.867Z,14.27
2023-03-14T18:12:39.666Z,8.63
2023-03-14T18:15:26.236Z,9.77
2023-03-14T18:18:12.697Z,13.97
2023-03-14T18:20:59.285Z,8.37
2023-03-14T18:23:48.258Z,10.17
2023-03-14T18:26:36.026Z,12.73
2023-03-14T18:29:22.769Z,11.47
2023-03-14T18:32:09.965Z,12.90
2023-03-14T18:34:56.748Z,13.67
2023-03-14T18:37:45.666Z,5.77
2023-03-14T18:40:32.540Z,9.43
2023-03-14T18:43:20.506Z,10.80
2023-03-14T18:46:07.163Z,11.17
2023-03-14T18:48:56.438Z,7.80
2023-03-14T18:51:43.883Z,10.00
2023-03-14T18:54:30.511Z,8.20
2023-03-14T18:57:16.990Z,7.43
2023-03-14T19:00:07.130Z,11.67
2023-03-14T19:02:53.712Z,10.07
2023-03-14T19:05:44.833Z,11.93
2023-03-14T19:08:31.130Z,11.97
2023-03-14T19:11:18.225Z,10.87
2023-03-14T19:14:05.154Z,20.97
2023-03-14T19:16:53.016Z,13.47
2023-03-14T19:19:39.788Z,10.17
2023-03-14T19:22:26.345Z,17.30
2023-03-14T19:25:12.663Z,9.87
2023-03-14T19:27:59.109Z,7.37
2023-03-14T19:30:45.802Z,12.33
2023-03-14T19:33:33.892Z,8.80
2023-03-14T19:36:23.719Z,16.77
2023-03-14T19:39:10.681Z,9.63
2023-03-14T19:41:59.436Z,12.20
2023-03-14T19:44:45.938Z,6.97
2023-03-14T19:47:32.928Z,9.43
2023-03-14T19:50:20.887Z,8.47
2023-03-14T19:53:08.973Z,11.53
2023-03-14T19:55:55.582Z,11.27
2023-03-14T19:58:43.688Z,3.60
2023-03-14T20:01:31.705Z,10.00
2023-03-14T20:04:18.574Z,8.87
2023-03-14T20:07:06.452Z,9.30
2023-03-14T20:09:53.532Z,9.33
2023-03-14T20:12:40.759Z,13.13
2023-03-14T20:15:27.588Z,25.73
2023-03-14T20:18:14.164Z,7.23
2023-03-14T20:21:01.186Z,8.27
2023-03-14T20:23:49.854Z,13.07
2023-03-14T20:26:37.273Z,8.57
2023-03-14T20:29:23.764Z,9.00
2023-03-14T20:32:11.405Z,6.47
2023-03-14T20:34:58.308Z,11.73
2023-03-14T20:37:44.843Z,8.40
2023-03-14T20:40:33.999Z,9.93
2023-03-14T20:43:20.523Z,6.03
2023-03-14T20:46:08.114Z,17.33
2023-03-14T20:48:55.174Z,7.43
2023-03-14T20:51:41.494Z,11.57
2023-03-14T20:54:27.957Z,10.60
2023-03-14T20:57:16.662Z,9.13
2023-03-14T21:00:06.783Z,8.40
2023-03-14T21:02:54.205Z,9.03
2023-03-14T21:05:42.507Z,10.83
2023-03-14T21:08:29.158Z,9.10
2023-03-14T21:11:15.858Z,14.43
2023-03-14T21:14:04.235Z,6.87
2023-03-14T21:16:55.650Z,6.80
2023-03-14T21:19:45.569Z,10.63
2023-03-14T21:22:31.961Z,11.13
2023-03-14T21:25:18.432Z,9.63
2023-03-14T21:28:05.678Z,13.10
2023-03-14T21:30:54.210Z,20.57
2023-03-14T21:33:41.010Z,11.10
2023-03-14T21:36:27.598Z,21.23
2023-03-14T21:39:14.605Z,15.40
2023-03-14T21:42:01.731Z,10.73
2023-03-14T21:44:49.516Z,9.70
2023-03-14T21:47:37.210Z,15.83
2023-03-14T21:50:25.740Z,23.83
2023-03-14T21:53:12.578Z,20.40
2023-03-14T21:55:59.324Z,9.30
2023-03-14T21:58:46.907Z,24.40
2023-03-14T22:01:33.756Z,15.63
2023-03-14T22:04:26.222Z,17.20
2023-03-14T22:07:15.327Z,13.50
2023-03-14T22:10:04.088Z,15.37
2023-03-14T22:12:50.620Z,8.03
2023-03-14T22:15:37.190Z,9.00
2023-03-14T22:18:25.190Z,8.17
2023-03-14T22:21:13.064Z,11.83
2023-03-14T22:23:59.519Z,8.63
2023-03-14T22:26:46.027Z,7.80
2023-03-14T22:29:32.517Z,8.17
2023-03-14T22:32:19.058Z,11.50
2023-03-14T22:35:05.801Z,10.63
2023-03-14T22:37:53.700Z,12.87
2023-03-14T22:40:40.457Z,10.40
2023-03-14T22:43:26.862Z,9.90
2023-03-14T22:46:13.271Z,7.70
2023-03-14T22:49:01.565Z,7.97
2023-03-14T22:51:48.309Z,5.43
2023-03-14T22:54:36.009Z,6.87
2023-03-14T22:57:22.617Z,7.37
2023-03-14T23:00:13.827Z,8.03
2023-03-14T23:03:00.792Z,6.20
2023-03-14T23:05:47.548Z,9.13
2023-03-14T23:08:34.074Z,9.03
2023-03-14T23:11:22.000Z,3.00
2023-03-14T23:14:08.512Z,9.40
2023-03-14T23:16:55.791Z,4.87
2023-03-14T23:19:42.306Z,7.67
2023-03-14T23:22:32.872Z,4.43
2023-03-14T23:25:19.919Z,11.03
2023-03-14T23:28:08.219Z,5.90
2023-03-14T23:30:56.049Z,9.60
2023-03-14T23:33:43.881Z,11.00
2023-03-14T23:36:30.717Z,7.30
2023-03-14T23:39:17.316Z,8.70
2023-03-14T23:42:03.775Z,6.10
2023-03-14T23:44:53.473Z,10.07
2023-03-14T23:47:41.329Z,7.63
2023-03-14T23:50:27.639Z,11.90
2023-03-14T23:53:14.463Z,5.60
2023-03-14T23:56:01.610Z,9.27
2023-03-14T23:58:48.241Z,4.63
